createdAt,value
2023-01-11T00:00:15.441Z,5.03
2023-01-11T00:03:05.514Z,5.02
2023-01-11T00:05:39.709Z,5.02
2023-01-11T00:08:09.063Z,5.04
2023-01-11T00:10:38.034Z,5.08
2023-01-11T00:13:07.291Z,5.09
2023-01-11T00:15:37.497Z,5.07
2023-01-11T00:18:07.951Z,5.03
2023-01-11T00:20:40.650Z,5.00
2023-01-11T00:23:10.015Z,4.95
2023-01-11T00:25:38.929Z,4.91
2023-01-11T00:28:07.750Z,4.89
2023-01-11T00:30:36.818Z,4.86
2023-01-11T00:33:05.652Z,4.83
2023-01-11T00:35:34.381Z,4.78
2023-01-11T00:38:03.532Z,4.75
2023-01-11T00:40:32.437Z,4.71
2023-01-11T00:43:19.588Z,4.64
2023-01-11T00:46:15.293Z,4.60
2023-01-11T00:48:44.211Z,4.56
2023-01-11T00:51:13.075Z,4.47
2023-01-11T00:53:41.764Z,4.39
2023-01-11T00:56:10.625Z,4.32
2023-01-11T00:58:39.338Z,4.28
2023-01-11T01:01:08.539Z,4.27
2023-01-11T01:03:37.181Z,4.28
2023-01-11T01:06:06.481Z,4.29
2023-01-11T01:08:35.823Z,4.30
2023-01-11T01:11:04.489Z,4.28
2023-01-11T01:13:51.840Z,4.29
2023-01-11T01:16:20.795Z,4.30
2023-01-11T01:18:51.663Z,4.26
2023-01-11T01:21:21.352Z,4.21
2023-01-11T01:23:52.090Z,4.23
2023-01-11T01:26:20.793Z,4.24
2023-01-11T01:28:49.987Z,4.26
2023-01-11T01:31:18.888Z,4.25
2023-01-11T01:33:47.743Z,4.26
2023-01-11T01:36:16.525Z,4.29
2023-01-11T01:38:45.264Z,4.32
2023-01-11T01:41:14.566Z,4.34
2023-01-11T01:43:50.361Z,4.36
2023-01-11T01:46:20.808Z,4.38
2023-01-11T01:48:56.250Z,4.40
2023-01-11T01:51:31.506Z,4.41
2023-01-11T01:54:05.875Z,4.40
2023-01-11T01:56:42.301Z,4.38
2023-01-11T01:59:15.012Z,4.35
2023-01-11T02:01:47.823Z,4.32
2023-01-11T02:04:23.023Z,4.31
2023-01-11T02:06:57.541Z,4.29
2023-01-11T02:09:32.647Z,4.28
2023-01-11T02:12:01.872Z,4.27
2023-01-11T02:14:32.046Z,4.25
2023-01-11T02:17:00.888Z,4.23
2023-01-11T02:19:48.658Z,4.24
2023-01-11T02:22:53.255Z,4.24
2023-01-11T02:25:47.939Z,4.24
2023-01-11T02:28:22.043Z,4.20
2023-01-11T02:31:00.802Z,4.18
2023-01-11T02:33:37.949Z,4.14
2023-01-11T02:36:14.153Z,4.07
2023-01-11T02:38:47.491Z,4.00
2023-01-11T02:41:25.185Z,3.92
2023-01-11T02:44:18.891Z,3.86
2023-01-11T02:46:52.716Z,3.83
2023-01-11T02:49:31.270Z,3.78
2023-01-11T02:52:06.442Z,3.72
2023-01-11T02:54:38.714Z,3.65
2023-01-11T02:57:09.144Z,3.59
2023-01-11T02:59:39.881Z,3.54
2023-01-11T03:02:09.259Z,3.50
2023-01-11T03:04:42.647Z,3.45
2023-01-11T03:07:35.821Z,3.39
2023-01-11T03:10:17.735Z,3.34
2023-01-11T03:12:59.018Z,3.29
2023-01-11T03:15:47.213Z,3.26
2023-01-11T03:18:30.712Z,3.24
2023-01-11T03:21:07.450Z,3.19
2023-01-11T03:23:46.101Z,3.14
2023-01-11T03:26:29.192Z,3.10
2023-01-11T03:29:06.184Z,3.05
2023-01-11T03:31:39.187Z,2.96
2023-01-11T03:34:15.794Z,2.92
2023-01-11T03:36:53.243Z,2.86
2023-01-11T03:39:29.111Z,2.83
2023-01-11T03:42:01.275Z,2.80
2023-01-11T03:44:31.418Z,2.75
2023-01-11T03:47:05.421Z,2.70
2023-01-11T03:49:37.510Z,2.66
2023-01-11T03:52:11.983Z,2.59
2023-01-11T03:54:42.404Z,2.53
2023-01-11T03:57:16.220Z,2.44
2023-01-11T03:59:45.741Z,2.34
2023-01-11T04:02:19.147Z,2.26
2023-01-11T04:04:48.399Z,2.18
2023-01-11T04:07:18.092Z,2.12
2023-01-11T04:09:46.868Z,2.06
2023-01-11T04:12:15.979Z,2.00
2023-01-11T04:14:44.701Z,1.93
2023-01-11T04:17:13.697Z,1.84
2023-01-11T04:19:42.428Z,1.78
2023-01-11T04:22:11.292Z,1.75
2023-01-11T04:24:39.946Z,1.69
2023-01-11T04:27:08.621Z,1.60
2023-01-11T04:29:37.122Z,1.55
2023-01-11T04:32:06.195Z,1.51
2023-01-11T04:34:34.924Z,1.48
2023-01-11T04:37:03.805Z,1.45
2023-01-11T04:39:32.557Z,1.43
2023-01-11T04:42:19.869Z,1.37
2023-01-11T04:44:50.168Z,1.35
2023-01-11T04:47:21.179Z,1.34
2023-01-11T04:49:50.578Z,1.33
2023-01-11T04:52:20.574Z,1.32
2023-01-11T04:54:51.762Z,1.32
2023-01-11T04:57:21.023Z,1.30
2023-01-11T04:59:50.136Z,1.28
2023-01-11T05:02:18.892Z,1.25
2023-01-11T05:04:47.727Z,1.22
2023-01-11T05:07:16.520Z,1.21
2023-01-11T05:09:45.608Z,1.19
2023-01-11T05:12:14.592Z,1.18
2023-01-11T05:14:43.485Z,1.17
2023-01-11T05:17:15.193Z,1.16
2023-01-11T05:19:44.016Z,1.14
2023-01-11T05:22:12.757Z,1.14
2023-01-11T05:24:43.864Z,1.13
2023-01-11T05:27:12.859Z,1.12
2023-01-11T05:29:43.704Z,1.10
2023-01-11T05:32:15.342Z,1.08
2023-01-11T05:34:46.593Z,1.06
2023-01-11T05:37:15.380Z,1.02
2023-01-11T05:39:53.621Z,0.96
2023-01-11T05:42:25.776Z,0.93
2023-01-11T05:45:25.513Z,0.93
2023-01-11T05:48:05.771Z,0.94
2023-01-11T05:50:51.263Z,0.94
2023-01-11T05:53:24.074Z,0.96
2023-01-11T05:55:57.058Z,0.99
2023-01-11T05:58:30.788Z,1.00
2023-01-11T06:01:03.431Z,1.02
2023-01-11T06:03:52.847Z,1.02
2023-01-11T06:06:22.585Z,1.02
2023-01-11T06:08:51.698Z,0.99
2023-01-11T06:11:24.220Z,0.97
2023-01-11T06:14:07.398Z,0.97
2023-01-11T06:16:49.424Z,0.98
2023-01-11T06:19:23.231Z,1.01
2023-01-11T06:22:11.816Z,1.05
2023-01-11T06:25:00.769Z,1.08
2023-01-11T06:27:38.604Z,1.13
2023-01-11T06:30:13.006Z,1.16
2023-01-11T06:32:41.880Z,1.19
2023-01-11T06:35:23.886Z,1.21
2023-01-11T06:38:07.437Z,1.25
2023-01-11T06:40:36.645Z,1.28
2023-01-11T06:43:26.700Z,1.29
2023-01-11T06:46:16.684Z,1.29
2023-01-11T06:49:01.490Z,1.30
2023-01-11T06:51:47.883Z,1.30
2023-01-11T06:54:26.775Z,1.30
2023-01-11T06:57:03.345Z,1.30
2023-01-11T06:59:43.719Z,1.31
2023-01-11T07:02:12.702Z,1.33
2023-01-11T07:04:50.947Z,1.34
2023-01-11T07:07:20.151Z,1.35
2023-01-11T07:09:59.339Z,1.36
2023-01-11T07:12:48.404Z,1.40
2023-01-11T07:15:30.673Z,1.44
2023-01-11T07:18:20.180Z,1.46
2023-01-11T07:20:52.363Z,1.48
2023-01-11T07:23:23.483Z,1.51
2023-01-11T07:25:52.506Z,1.55
2023-01-11T07:28:35.718Z,1.58
2023-01-11T07:31:07.628Z,1.61
2023-01-11T07:33:56.681Z,1.66
2023-01-11T07:36:27.376Z,1.72
2023-01-11T07:39:08.551Z,1.77
2023-01-11T07:42:26.806Z,1.84
2023-01-11T07:45:12.122Z,2.03
2023-01-11T07:48:01.390Z,2.29
2023-01-11T07:50:33.921Z,2.52
2023-01-11T07:53:06.193Z,2.76
2023-01-11T07:55:48.917Z,3.03
2023-01-11T07:58:17.700Z,3.26
2023-01-11T08:00:51.918Z,3.46
2023-01-11T08:03:20.953Z,3.61
2023-01-11T08:05:53.797Z,3.64
2023-01-11T08:08:22.799Z,3.56
2023-01-11T08:11:07.192Z,3.46
2023-01-11T08:13:58.870Z,3.39
2023-01-11T08:16:41.997Z,3.35
2023-01-11T08:19:24.573Z,3.35
2023-01-11T08:22:00.771Z,3.37
2023-01-11T08:24:40.313Z,3.45
2023-01-11T08:27:23.990Z,3.61
2023-01-11T08:30:06.082Z,3.83
2023-01-11T08:32:41.044Z,4.03
2023-01-11T08:35:32.604Z,4.28
2023-01-11T08:38:21.683Z,4.51
2023-01-11T08:40:59.364Z,4.73
2023-01-11T08:43:30.912Z,4.92
2023-01-11T08:46:05.704Z,4.96
2023-01-11T08:48:37.483Z,5.06
2023-01-11T08:51:26.774Z,5.22
2023-01-11T08:53:55.833Z,5.41
2023-01-11T08:56:45.127Z,5.69
2023-01-11T08:59:34.317Z,5.98
2023-01-11T09:02:06.868Z,6.23
2023-01-11T09:04:49.944Z,6.44
2023-01-11T09:07:30.259Z,6.59
2023-01-11T09:10:12.700Z,6.71
2023-01-11T09:13:01.740Z,6.84
2023-01-11T09:15:54.486Z,6.99
2023-01-11T09:18:36.285Z,7.19
2023-01-11T09:21:16.742Z,7.30
2023-01-11T09:24:06.999Z,7.46
2023-01-11T09:26:58.535Z,7.60
2023-01-11T09:29:38.245Z,7.73
2023-01-11T09:32:10.511Z,7.81
2023-01-11T09:35:00.580Z,7.82
2023-01-11T09:37:40.726Z,7.83
2023-01-11T09:40:17.837Z,7.85
2023-01-11T09:42:52.107Z,7.89
2023-01-11T09:45:23.420Z,7.96
2023-01-11T09:48:03.476Z,8.06
2023-01-11T09:50:40.684Z,8.16
2023-01-11T09:53:36.584Z,8.16
2023-01-11T09:56:25.139Z,8.15
2023-01-11T09:59:24.107Z,8.17
2023-01-11T10:02:24.023Z,8.18
2023-01-11T10:05:38.573Z,8.26
2023-01-11T10:18:22.844Z,8.32
2023-01-11T10:18:57.911Z,8.30
2023-01-11T10:21:32.132Z,8.38
2023-01-11T10:24:06.791Z,8.41
2023-01-11T10:26:41.652Z,8.40
2023-01-11T10:29:45.611Z,8.31
2023-01-11T10:33:02.636Z,8.25
2023-01-11T10:36:09.135Z,8.29
2023-01-11T10:39:07.383Z,8.30
2023-01-11T10:41:51.816Z,8.31
2023-01-11T10:44:37.296Z,8.34
2023-01-11T10:47:31.581Z,8.28
2023-01-11T10:50:24.101Z,8.26
2023-01-11T10:53:16.458Z,8.26
2023-01-11T10:56:18.537Z,8.18
2023-01-11T10:59:25.994Z,8.00
2023-01-11T11:02:05.652Z,7.94
2023-01-11T11:04:53.307Z,7.86
2023-01-11T11:07:51.916Z,7.70
2023-01-11T11:10:42.496Z,7.48
2023-01-11T11:13:45.449Z,7.32
2023-01-11T11:16:49.625Z,7.19
2023-01-11T11:19:39.486Z,7.01
2023-01-11T11:22:20.377Z,6.93
2023-01-11T11:24:54.496Z,6.83
2023-01-11T11:27:47.460Z,6.70
2023-01-11T11:30:32.805Z,6.63
2023-01-11T11:33:16.816Z,6.59
2023-01-11T11:35:59.389Z,6.57
2023-01-11T11:39:09.288Z,6.52
2023-01-11T11:42:08.621Z,6.49
2023-01-11T11:44:42.842Z,6.52
2023-01-11T11:47:16.171Z,6.48
2023-01-11T11:49:46.168Z,6.47
2023-01-11T11:52:18.728Z,6.47
2023-01-11T11:54:55.725Z,6.48
2023-01-11T11:57:28.450Z,6.51
2023-01-11T12:00:25.341Z,6.56
2023-01-11T12:03:02.627Z,6.59
2023-01-11T12:05:52.352Z,6.61
2023-01-11T12:08:43.350Z,6.62
2023-01-11T12:11:35.172Z,6.62
2023-01-11T12:14:18.694Z,6.63
2023-01-11T12:17:24.636Z,6.61
2023-01-11T12:20:39.337Z,6.64
2023-01-11T12:23:28.923Z,6.66
2023-01-11T12:26:21.443Z,6.68
2023-01-11T12:29:35.957Z,6.70
2023-01-11T12:32:21.056Z,6.71
2023-01-11T12:35:22.207Z,6.70
2023-01-11T12:38:29.775Z,6.69
2023-01-11T12:41:50.806Z,6.69
2023-01-11T12:44:40.947Z,6.70
2023-01-11T12:47:56.699Z,6.71
2023-01-11T12:51:05.010Z,6.73
2023-01-11T12:53:50.869Z,6.75
2023-01-11T12:56:47.746Z,6.78
2023-01-11T12:59:29.259Z,6.80
2023-01-11T13:02:19.682Z,6.80
2023-01-11T13:05:24.461Z,6.76
2023-01-11T13:08:12.605Z,6.72
2023-01-11T13:10:59.936Z,6.72
2023-01-11T13:13:56.773Z,6.70
2023-01-11T13:16:31.823Z,6.68
2023-01-11T13:19:10.539Z,6.67
2023-01-11T13:21:52.679Z,6.65
2023-01-11T13:24:33.717Z,6.63
2023-01-11T13:27:24.820Z,6.62
2023-01-11T13:29:55.865Z,6.62
2023-01-11T13:32:32.167Z,6.61
2023-01-11T13:35:06.877Z,6.57
2023-01-11T13:37:44.604Z,6.54
2023-01-11T13:40:22.446Z,6.54
2023-01-11T13:42:59.635Z,6.53
2023-01-11T13:46:03.120Z,6.50
2023-01-11T13:48:42.818Z,6.49
2023-01-11T13:51:18.994Z,6.48
2023-01-11T13:54:16.182Z,6.46
2023-01-11T13:57:00.096Z,6.43
2023-01-11T13:59:56.373Z,6.39
2023-01-11T14:02:42.123Z,6.38
2023-01-11T14:05:17.746Z,6.36
2023-01-11T14:08:14.556Z,6.34
2023-01-11T14:11:10.379Z,6.32
2023-01-11T14:14:13.782Z,6.31
2023-01-11T14:17:07.148Z,6.29
2023-01-11T14:19:46.204Z,6.28
2023-01-11T14:22:39.051Z,6.26
2023-01-11T14:25:32.433Z,6.24
2023-01-11T14:28:37.723Z,6.21
2023-01-11T14:31:36.132Z,6.20
2023-01-11T14:34:43.479Z,6.17
2023-01-11T14:38:03.967Z,6.12
2023-01-11T14:41:30.865Z,6.09
2023-01-11T14:44:22.943Z,6.06
2023-01-11T14:47:39.517Z,6.03
2023-01-11T14:50:20.780Z,5.99
2023-01-11T14:53:15.905Z,5.97
2023-01-11T14:56:26.055Z,5.95
2023-01-11T14:59:25.107Z,5.92
2023-01-11T15:02:28.355Z,5.89
2023-01-11T15:05:34.184Z,5.88
2023-01-11T15:08:37.608Z,5.87
2023-01-11T15:11:40.191Z,5.85
2023-01-11T15:14:33.756Z,5.86
2023-01-11T15:17:45.021Z,5.85
2023-01-11T15:20:50.386Z,5.83
2023-01-11T15:23:22.258Z,5.82
2023-01-11T15:26:15.008Z,5.79
2023-01-11T15:29:05.352Z,5.78
2023-01-11T15:31:38.785Z,5.76
2023-01-11T15:34:40.123Z,5.76
2023-01-11T15:37:53.498Z,5.74
2023-01-11T15:40:46.195Z,5.71
2023-01-11T15:43:48.027Z,5.69
2023-01-11T15:47:13.039Z,5.67
2023-01-11T15:50:27.896Z,5.66
2023-01-11T15:53:37.487Z,5.66
2023-01-11T15:56:46.537Z,5.64
2023-01-11T16:00:06.444Z,5.61
2023-01-11T16:03:15.369Z,5.60
2023-01-11T16:06:07.864Z,5.59
2023-01-11T16:09:06.635Z,5.56
2023-01-11T16:12:10.920Z,5.56
2023-01-11T16:15:01.754Z,5.55
2023-01-11T16:17:51.825Z,5.52
2023-01-11T16:20:32.407Z,5.50
2023-01-11T16:23:20.421Z,5.48
2023-01-11T16:26:14.172Z,5.45
2023-01-11T16:29:12.651Z,5.44
2023-01-11T16:31:55.351Z,5.40
2023-01-11T16:34:49.685Z,5.39
2023-01-11T16:37:34.746Z,5.36
2023-01-11T16:40:21.910Z,5.32
2023-01-11T16:43:19.911Z,5.29
2023-01-11T16:45:53.849Z,5.28
2023-01-11T16:48:29.226Z,5.25
2023-01-11T16:51:23.744Z,5.23
2023-01-11T16:54:02.096Z,5.21
2023-01-11T16:56:46.456Z,5.18
2023-01-11T16:59:30.093Z,5.15
2023-01-11T17:02:30.251Z,5.12
2023-01-11T17:05:00.271Z,5.10
2023-01-11T17:07:29.917Z,5.09
2023-01-11T17:10:23.076Z,5.06
2023-01-11T17:13:50.509Z,5.02
2023-01-11T17:16:37.757Z,5.01
2023-01-11T17:19:17.135Z,4.99
2023-01-11T17:22:05.073Z,4.98
2023-01-11T17:24:54.650Z,4.97
2023-01-11T17:27:50.268Z,4.97
2023-01-11T17:30:34.593Z,4.96
2023-01-11T17:33:37.188Z,4.95
2023-01-11T17:36:16.116Z,4.96
2023-01-11T17:38:45.430Z,4.97
2023-01-11T17:41:31.400Z,4.97
2023-01-11T17:44:22.189Z,4.98
2023-01-11T17:47:12.865Z,4.99
2023-01-11T17:50:03.220Z,5.00
2023-01-11T17:52:54.023Z,5.01
2023-01-11T17:55:52.212Z,5.02
2023-01-11T17:58:34.770Z,5.02
2023-01-11T18:01:20.174Z,5.03
2023-01-11T18:04:19.162Z,5.03
2023-01-11T18:07:15.303Z,5.04
2023-01-11T18:10:00.413Z,5.05
2023-01-11T18:12:51.813Z,5.05
2023-01-11T18:15:31.607Z,5.05
2023-01-11T18:18:42.323Z,5.05
2023-01-11T18:21:39.431Z,5.05
2023-01-11T18:24:42.465Z,5.04
2023-01-11T18:27:31.743Z,5.05
2023-01-11T18:30:38.724Z,5.06
2023-01-11T18:33:30.182Z,5.06
2023-01-11T18:36:22.208Z,5.05
2023-01-11T18:39:11.571Z,5.06
2023-01-11T18:42:09.652Z,5.08
2023-01-11T18:44:42.494Z,5.08
2023-01-11T18:47:16.494Z,5.07
2023-01-11T18:49:45.911Z,5.07
2023-01-11T18:52:28.807Z,5.06
2023-01-11T18:55:09.925Z,5.05
2023-01-11T18:57:48.563Z,5.06
2023-01-11T19:00:41.063Z,5.07
2023-01-11T19:06:05.439Z,5.09
2023-01-11T19:08:54.755Z,5.10
2023-01-11T19:11:44.178Z,5.11
2023-01-11T19:14:33.705Z,5.12
2023-01-11T19:17:15.143Z,5.13
2023-01-11T19:20:08.555Z,5.13
2023-01-11T19:22:57.829Z,5.15
2023-01-11T19:25:41.562Z,5.17
2023-01-11T19:28:10.380Z,5.19
2023-01-11T19:30:45.358Z,5.18
2023-01-11T19:33:24.088Z,5.17
2023-01-11T19:36:13.274Z,5.17
2023-01-11T19:38:52.563Z,5.15
2023-01-11T19:42:01.508Z,5.15
2023-01-11T19:44:38.217Z,5.16
2023-01-11T19:47:11.408Z,5.18
2023-01-11T19:49:58.318Z,5.19
2023-01-11T19:52:29.673Z,5.19
2023-01-11T19:55:11.566Z,5.17
2023-01-11T19:57:44.220Z,5.16
2023-01-11T20:00:23.682Z,5.15
2023-01-11T20:03:11.727Z,5.14
2023-01-11T20:06:07.558Z,5.12
2023-01-11T20:08:57.032Z,5.11
2023-01-11T20:11:48.748Z,5.10
2023-01-11T20:14:39.986Z,5.09
2023-01-11T20:17:29.263Z,5.09
2023-01-11T20:20:18.729Z,5.09
2023-01-11T20:23:01.220Z,5.11
2023-01-11T20:25:50.499Z,5.11
2023-01-11T20:28:39.536Z,5.13
2023-01-11T20:31:32.441Z,5.16
2023-01-11T20:34:22.104Z,5.19
2023-01-11T20:37:11.403Z,5.23
2023-01-11T20:40:00.310Z,5.23
2023-01-11T20:42:49.573Z,5.23
2023-01-11T20:45:18.549Z,5.24
2023-01-11T20:47:47.260Z,5.26
2023-01-11T20:50:17.090Z,5.27
2023-01-11T20:52:47.790Z,5.27
2023-01-11T20:55:29.863Z,5.28
2023-01-11T20:58:19.144Z,5.29
2023-01-11T21:01:09.812Z,5.31
2023-01-11T21:04:01.390Z,5.29
2023-01-11T21:06:45.563Z,5.29
2023-01-11T21:09:15.823Z,5.30
2023-01-11T21:11:55.624Z,5.32
2023-01-11T21:14:44.927Z,5.31
2023-01-11T21:17:16.463Z,5.30
2023-01-11T21:19:45.698Z,5.25
2023-01-11T21:22:17.501Z,5.20
2023-01-11T21:24:55.296Z,5.12
2023-01-11T21:27:44.213Z,5.02
2023-01-11T21:30:22.636Z,4.94
2023-01-11T21:32:57.727Z,4.87
2023-01-11T21:35:33.487Z,4.82
2023-01-11T21:38:07.582Z,4.79
2023-01-11T21:40:45.893Z,4.76
2023-01-11T21:43:16.862Z,4.71
2023-01-11T21:45:55.198Z,4.66
2023-01-11T21:48:24.086Z,4.59
2023-01-11T21:51:12.743Z,4.54
2023-01-11T21:53:45.880Z,4.49
2023-01-11T21:56:20.305Z,4.45
2023-01-11T21:58:49.930Z,4.41
2023-01-11T22:01:31.005Z,4.40
2023-01-11T22:04:21.287Z,4.39
2023-01-11T22:06:54.008Z,4.37
2023-01-11T22:09:26.650Z,4.37
2023-01-11T22:12:05.917Z,4.38
2023-01-11T22:14:43.776Z,4.37
2023-01-11T22:17:12.461Z,4.38
2023-01-11T22:19:41.355Z,4.39
2023-01-11T22:22:19.280Z,4.40
2023-01-11T22:24:57.160Z,4.42
2023-01-11T22:27:29.202Z,4.45
2023-01-11T22:30:00.709Z,4.46
2023-01-11T22:32:32.946Z,4.46
2023-01-11T22:35:01.743Z,4.46
2023-01-11T22:37:33.420Z,4.46
2023-01-11T22:40:10.072Z,4.47
2023-01-11T22:42:41.822Z,4.48
2023-01-11T22:45:12.264Z,4.50
2023-01-11T22:47:40.836Z,4.51
2023-01-11T22:50:11.259Z,4.52
2023-01-11T22:52:40.356Z,4.55
2023-01-11T22:55:10.305Z,4.55
2023-01-11T22:57:42.444Z,4.55
2023-01-11T23:00:14.435Z,4.56
2023-01-11T23:02:43.258Z,4.60
2023-01-11T23:05:12.186Z,4.61
2023-01-11T23:07:43.232Z,4.64
2023-01-11T23:10:15.779Z,4.67
2023-01-11T23:13:03.136Z,4.68
2023-01-11T23:15:31.913Z,4.69
2023-01-11T23:18:00.912Z,4.67
2023-01-11T23:20:29.626Z,4.66
2023-01-11T23:23:01.120Z,4.66
2023-01-11T23:25:30.047Z,4.64
2023-01-11T23:27:58.700Z,4.64
2023-01-11T23:30:27.923Z,4.64
2023-01-11T23:32:56.724Z,4.64
2023-01-11T23:35:25.418Z,4.64
2023-01-11T23:37:55.443Z,4.65
2023-01-11T23:40:24.272Z,4.66
2023-01-11T23:42:58.730Z,4.67
2023-01-11T23:45:27.419Z,4.66
2023-01-11T23:47:56.320Z,4.67
2023-01-11T23:50:25.327Z,4.69
2023-01-11T23:52:54.565Z,4.71
2023-01-11T23:55:26.329Z,4.73
2023-01-11T23:58:08.768Z,4.72
